Time;durP1;ratioP1;P1;durP2;ratioP2;P2;SDS_P1;SDS_P2;PMS_P1;PMS_P2;Temp;Humidity;BMP_temperature;BMP_pressure;BME280_temperature;BME280_humidity;BME280_pressure;Samples;Min_cycle;Max_cycle;Signal;HPM_P1;HPM_P2
2022/05/23 00:00:35;;;;;;;0.40;0.40;;;;;;;11.31;100.00;98653.70;1697846;82;21352;-47
2022/05/23 00:03:01;;;;;;;0.40;0.40;;;;;;;11.29;100.00;98659.70;1696298;82;21124;-47
2022/05/23 00:05:28;;;;;;;0.40;0.40;;;;;;;11.28;100.00;98660.67;1711988;82;21549;-46
2022/05/23 00:07:56;;;;;;;0.45;0.30;;;;;;;11.27;100.00;98667.02;1696587;82;21518;-47
2022/05/23 00:10:22;;;;;;;0.30;0.30;;;;;;;11.25;100.00;98670.77;1656343;82;21640;-47
2022/05/23 00:12:50;;;;;;;0.47;0.40;;;;;;;11.26;100.00;98676.06;1703019;82;21102;-46
2022/05/23 00:15:17;;;;;;;0.47;0.40;;;;;;;11.25;100.00;98670.77;1706253;82;22395;-49
2022/05/23 00:17:44;;;;;;;0.50;0.40;;;;;;;11.26;100.00;98676.06;1705459;82;21173;-47
2022/05/23 00:20:14;;;;;;;0.37;0.37;;;;;;;11.28;100.00;98679.53;1726329;81;21407;-49
2022/05/23 00:22:40;;;;;;;0.50;0.40;;;;;;;11.29;100.00;98675.00;1706035;82;21646;-47
2022/05/23 00:25:09;;;;;;;0.60;0.40;;;;;;;11.31;100.00;98677.95;1694979;82;21142;-47
2022/05/23 00:27:39;;;;;;;0.40;0.40;;;;;;;11.33;100.00;98685.45;1706359;82;21054;-47
2022/05/23 00:30:10;;;;;;;0.55;0.50;;;;;;;11.36;100.00;98683.91;1685708;82;21140;-48
2022/05/23 00:35:21;;;;;;;;;;;;;;;11.37;100.00;98682.94;1710596;82;21503;-47
2022/05/23 00:37:55;;;;;;;3.62;0.60;;;;;;;11.37;100.00;98691.51;1727195;80;20230;-49
2022/05/23 00:40:38;;;;;;;1.72;0.60;;;;;;;11.34;100.00;98694.40;1731404;80;20976;-48
2022/05/23 00:43:20;;;;;;;5.37;0.78;;;;;;;11.30;100.00;98700.50;1729809;80;20908;-47
2022/05/23 00:45:53;;;;;;;2.72;0.78;;;;;;;11.27;100.00;98700.69;1734351;80;20913;-48
2022/05/23 00:48:23;;;;;;;0.80;0.70;;;;;;;11.25;100.00;98701.27;1713084;81;21882;-49
2022/05/23 00:50:59;;;;;;;0.80;0.60;;;;;;;11.25;100.00;98701.75;1732514;80;20877;-46
2022/05/23 00:53:32;;;;;;;2.55;1.20;;;;;;;11.24;100.00;98693.29;1726979;80;21450;-51
2022/05/23 00:55:58;;;;;;;1.10;0.70;;;;;;;11.24;100.00;98703.58;1729253;80;20944;-47
2022/05/23 00:58:29;;;;;;;1.70;0.57;;;;;;;11.23;100.00;98707.72;1711541;81;21462;-46
2022/05/23 01:00:57;;;;;;;1.27;0.60;;;;;;;11.25;100.00;98705.80;1700745;81;21058;-47
2022/05/23 01:03:24;;;;;;;0.60;0.60;;;;;;;11.25;100.00;98700.41;1750125;79;21346;-46
2022/05/23 01:05:54;;;;;;;1.35;0.60;;;;;;;11.26;100.00;98700.31;1751808;79;20943;-49
2022/05/23 01:08:19;;;;;;;1.85;0.80;;;;;;;11.27;100.00;98702.52;1752349;79;21310;-46
2022/05/23 01:13:15;;;;;;;0.73;0.70;;;;;;;11.33;100.00;98700.75;1865549;75;22642;-46
2022/05/23 01:15:47;;;;;;;1.12;0.70;;;;;;;11.30;100.00;98708.58;1843813;77;21155;-48
2022/05/23 01:18:15;;;;;;;2.08;0.80;;;;;;;11.30;100.00;98711.27;1810837;77;22696;-47
2022/05/23 01:20:45;;;;;;;0.82;0.75;;;;;;;11.32;100.00;98715.18;1839885;77;21438;-48
2022/05/23 01:23:47;;;;;;;0.60;0.60;;;;;;;11.31;100.00;98715.66;1843888;76;20989;-48
2022/05/23 01:26:15;;;;;;;0.90;0.62;;;;;;;11.29;100.00;98716.28;1839530;77;21016;-49
2022/05/23 01:28:44;;;;;;;2.58;0.70;;;;;;;11.28;100.00;98717.23;1837202;77;21645;-49
2022/05/23 01:31:12;;;;;;;1.77;0.70;;;;;;;11.27;100.00;98724.94;1806914;78;21261;-48
2022/05/23 01:33:39;;;;;;;3.12;0.60;;;;;;;11.27;100.00;98727.63;1807526;77;21029;-49
2022/05/23 01:36:12;;;;;;;1.90;0.80;;;;;;;11.26;100.00;98729.94;1784022;78;21080;-48
2022/05/23 01:38:38;;;;;;;2.35;0.70;;;;;;;11.25;100.00;98726.86;1807722;77;20977;-47
2022/05/23 01:41:09;;;;;;;1.07;0.65;;;;;;;11.25;100.00;98736.29;1806578;78;21056;-49
2022/05/23 01:43:38;;;;;;;1.62;0.60;;;;;;;11.25;100.00;98736.29;1801988;78;21135;-47
2022/05/23 01:46:20;;;;;;;0.93;0.80;;;;;;;11.24;100.00;98733.21;1808369;77;21509;-49
2022/05/23 01:48:49;;;;;;;1.65;0.80;;;;;;;11.20;100.00;98729.49;1776828;78;21065;-48
2022/05/23 01:51:15;;;;;;;1.45;0.80;;;;;;;11.18;100.00;98734.98;1775099;78;21824;-47
2022/05/23 01:53:42;;;;;;;0.82;0.75;;;;;;;11.16;100.00;98727.95;1804803;78;21088;-49
2022/05/23 01:56:08;;;;;;;1.10;0.80;;;;;;;11.14;100.00;98724.53;1806493;77;21320;-50
2022/05/23 02:01:21;;;;;;;2.02;0.90;;;;;;;11.13;100.00;98734.44;1807844;78;21214;-49
2022/05/23 02:03:49;;;;;;;0.90;0.70;;;;;;;11.12;100.00;98728.66;1809159;78;21017;-48
2022/05/23 02:06:16;;;;;;;2.65;0.80;;;;;;;11.12;100.00;98732.70;1805981;78;21053;-49
2022/05/23 02:08:45;;;;;;;2.08;0.85;;;;;;;11.12;100.00;98736.74;1809500;78;21134;-50
2022/05/23 02:11:13;;;;;;;2.17;0.90;;;;;;;11.11;100.00;98730.97;1806345;78;21226;-51
2022/05/23 02:13:42;;;;;;;2.45;1.00;;;;;;;11.11;100.00;98743.09;1802258;78;21033;-53
2022/05/23 02:16:11;;;;;;;1.60;1.00;;;;;;;11.11;100.00;98741.75;1808073;78;21000;-49
2022/05/23 02:18:40;;;;;;;2.62;1.00;;;;;;;11.09;100.00;98743.67;1807970;78;21136;-48
2022/05/23 02:21:07;;;;;;;3.80;1.00;;;;;;;11.04;100.00;98742.25;1746865;80;21134;-49
2022/05/23 02:23:35;;;;;;;2.10;1.50;;;;;;;10.98;100.00;98741.67;1754328;80;21062;-48
2022/05/23 02:26:02;;;;;;;2.37;1.55;;;;;;;10.94;100.00;98745.55;1750525;80;21539;-50
2022/05/23 02:28:47;;;;;;;;;;;;;;;10.93;100.00;98746.99;1751281;80;21289;-49
2022/05/23 02:31:15;;;;;;;5.40;2.10;;;;;;;10.93;100.00;98752.38;1735136;81;20359;-48
2022/05/23 02:33:43;;;;;;;2.83;1.70;;;;;;;10.93;100.00;98753.72;1740348;81;22778;-47
2022/05/23 02:36:23;;;;;;;5.95;2.58;;;;;;;10.93;100.00;98757.76;1744490;81;21060;-49
2022/05/23 02:38:50;;;;;;;5.67;2.35;;;;;;;10.94;100.00;98756.80;1714945;81;21042;-48
2022/05/23 02:41:17;;;;;;;6.80;2.75;;;;;;;10.94;100.00;98767.57;1747537;81;21385;-51
2022/05/23 02:43:43;;;;;;;9.33;3.75;;;;;;;10.95;100.00;98770.65;1744928;81;21532;-48
2022/05/23 02:46:13;;;;;;;5.65;3.27;;;;;;;10.97;100.00;98772.77;1743455;81;21199;-48
2022/05/23 02:48:42;;;;;;;5.47;3.67;;;;;;;10.99;100.00;98777.55;1744356;81;21057;-48
2022/05/23 02:51:09;;;;;;;7.05;4.05;;;;;;;11.03;100.00;98773.70;1765731;79;21109;-48
2022/05/23 02:53:36;;;;;;;7.50;4.67;;;;;;;11.05;100.00;98777.65;1769877;79;21121;-47
2022/05/23 02:56:04;;;;;;;5.80;3.60;;;;;;;11.03;100.00;98775.53;1730460;81;21128;-48
2022/05/23 02:58:30;;;;;;;9.93;3.92;;;;;;;10.99;100.00;98779.76;1746803;81;21125;-47
2022/05/23 03:00:57;;;;;;;4.90;3.15;;;;;;;10.96;100.00;98782.67;1742695;81;21057;-48
2022/05/23 03:03:24;;;;;;;5.47;3.08;;;;;;;10.93;100.00;98784.20;1715750;81;21126;-47
2022/05/23 03:05:53;;;;;;;5.62;3.67;;;;;;;10.94;100.00;98785.07;1742826;81;20977;-50
2022/05/23 03:08:23;;;;;;;8.48;3.40;;;;;;;10.96;100.00;98788.53;1738904;81;21067;-50
2022/05/23 03:10:51;;;;;;;6.22;4.35;;;;;;;10.98;100.00;98788.80;1744018;81;21150;-48
2022/05/23 03:13:19;;;;;;;6.37;3.95;;;;;;;11.00;100.00;98792.27;1707388;82;21110;-47
2022/05/23 03:15:46;;;;;;;4.65;4.22;;;;;;;11.05;100.00;98801.41;1729896;82;21421;-48
2022/05/23 03:18:13;;;;;;;10.93;5.00;;;;;;;11.10;100.00;98799.74;1730891;82;21092;-50
2022/05/23 03:20:43;;;;;;;4.53;4.12;;;;;;;11.10;100.00;98789.84;1722138;81;21058;-48
2022/05/23 03:28:44;;;;;;;6.47;4.40;;;;;;;11.14;100.00;98804.84;1721205;81;20933;-47
2022/05/23 03:31:10;;;;;;;9.53;4.83;;;;;;;11.14;100.00;98795.90;1750345;80;20972;-49
2022/05/23 03:33:37;;;;;;;8.75;5.65;;;;;;;11.10;100.00;98810.52;1725474;81;20969;-50
2022/05/23 03:36:04;;;;;;;7.62;5.85;;;;;;;11.06;100.00;98803.62;1745176;80;21082;-49
2022/05/23 03:38:30;;;;;;;6.75;3.70;;;;;;;11.05;100.00;98805.92;1729738;81;20969;-48
2022/05/23 03:40:59;;;;;;;7.20;4.05;;;;;;;11.03;100.00;98810.05;1716286;81;20921;-50
2022/05/23 03:43:27;;;;;;;10.93;5.83;;;;;;;11.01;100.00;98809.28;1688936;82;21511;-49
2022/05/23 03:45:59;;;;;;;8.08;5.37;;;;;;;11.02;100.00;98812.84;1731941;82;20927;-51
2022/05/23 03:48:26;;;;;;;7.25;5.75;;;;;;;11.03;100.00;98812.75;1708688;82;21095;-50
2022/05/23 03:50:53;;;;;;;7.37;4.47;;;;;;;11.03;100.00;98811.41;1729016;81;20897;-51
2022/05/23 03:53:20;;;;;;;8.10;4.67;;;;;;;10.97;100.00;98817.20;1754034;80;20954;-49
2022/05/23 03:55:51;;;;;;;8.73;4.35;;;;;;;10.93;100.00;98817.00;1751562;81;20944;-47
2022/05/23 03:58:19;;;;;;;7.35;5.72;;;;;;;10.88;100.00;98823.17;1748900;81;20970;-47
2022/05/23 04:00:49;;;;;;;10.20;5.28;;;;;;;10.89;100.00;98823.52;1748112;80;22345;-47
2022/05/23 04:03:17;;;;;;;8.10;5.70;;;;;;;10.92;100.00;98824.69;1754260;80;20930;-48
2022/05/23 04:05:44;;;;;;;9.88;5.67;;;;;;;10.94;100.00;98819.59;1752681;80;20958;-47
2022/05/23 04:08:13;;;;;;;9.48;5.35;;;;;;;10.93;100.00;98819.20;1721745;81;20969;-49
2022/05/23 04:10:43;;;;;;;9.00;6.28;;;;;;;10.95;100.00;98819.11;1752682;80;21436;-46
2022/05/23 04:13:11;;;;;;;13.08;6.62;;;;;;;10.99;100.00;98820.63;1751602;80;21216;-47
2022/05/23 04:15:40;;;;;;;9.10;5.95;;;;;;;11.02;100.00;98823.61;1750647;80;21088;-48
2022/05/23 04:18:07;;;;;;;7.60;5.60;;;;;;;11.04;100.00;98825.25;1752760;80;21056;-48
2022/05/23 04:20:34;;;;;;;8.68;6.12;;;;;;;11.08;100.00;98825.91;1760961;80;21069;-47
2022/05/23 04:23:08;;;;;;;8.35;5.92;;;;;;;11.09;100.00;98821.77;1778309;79;21057;-51
2022/05/23 04:25:44;;;;;;;11.85;6.12;;;;;;;11.11;100.00;98821.67;1748954;80;22281;-49
2022/05/23 04:28:11;;;;;;;9.63;6.00;;;;;;;11.11;100.00;98827.92;1749263;80;21032;-50
2022/05/23 04:30:39;;;;;;;7.05;5.47;;;;;;;11.13;100.00;98826.00;1775930;79;20898;-50
2022/05/23 04:35:54;;;;;;;5.62;5.03;;;;;;;11.20;100.00;98826.47;1751289;80;21081;-48
2022/05/23 04:38:22;;;;;;;7.12;5.28;;;;;;;11.24;100.00;98820.77;1754432;80;21046;-48
2022/05/23 04:40:50;;;;;;;8.93;4.70;;;;;;;11.29;100.00;98820.47;1780291;78;21078;-49
2022/05/23 04:43:16;;;;;;;9.60;4.17;;;;;;;11.34;100.00;98819.67;1776252;80;21529;-48
2022/05/23 04:45:43;;;;;;;13.93;4.40;;;;;;;11.41;100.00;98821.47;1777734;78;21471;-47
2022/05/23 04:51:03;;;;;;;5.83;5.22;;;;;;;11.50;100.00;98823.56;1776337;80;21635;-48
2022/05/23 04:53:32;;;;;;;4.58;3.75;;;;;;;11.54;100.00;98823.75;1779626;80;21631;-47
2022/05/23 04:56:02;;;;;;;4.80;3.87;;;;;;;11.58;100.00;98819.39;1751485;80;21055;-47
2022/05/23 04:58:29;;;;;;;5.78;2.85;;;;;;;11.62;100.00;98825.45;1754481;80;20885;-51
2022/05/23 05:00:56;;;;;;;6.87;3.65;;;;;;;11.67;100.00;98823.30;1750703;81;21464;-51
2022/05/23 05:03:23;;;;;;;7.20;3.52;;;;;;;11.73;100.00;98822.91;1745975;81;21062;-49
2022/05/23 05:05:50;;;;;;;4.12;2.60;;;;;;;11.81;100.00;98825.98;1761490;80;21097;-51
2022/05/23 05:08:17;;;;;;;3.60;3.35;;;;;;;11.87;100.00;98830.08;1755717;80;21012;-48
2022/05/23 05:10:46;;;;;;;3.05;2.22;;;;;;;11.96;100.00;98826.28;1754802;80;21315;-50
2022/05/23 05:13:13;;;;;;;6.72;2.35;;;;;;;12.06;100.00;98827.86;1757736;81;21386;-50
2022/05/23 05:15:41;;;;;;;5.62;3.45;;;;;;;12.20;100.00;98829.59;1754849;80;22401;-47
2022/05/23 05:18:09;;;;;;;7.35;3.50;;;;;;;12.33;100.00;98826.44;1749852;81;20929;-48
2022/05/23 05:20:37;;;;;;;6.53;4.15;;;;;;;12.46;100.00;98836.73;1749004;81;21064;-48
2022/05/23 05:23:06;;;;;;;5.58;3.98;;;;;;;12.53;100.00;98827.72;1694848;81;21032;-50
2022/05/23 05:25:52;;;;;;;3.50;2.58;;;;;;;12.57;100.00;98835.50;1743027;80;21159;-50
2022/05/23 05:28:21;;;;;;;5.22;3.72;;;;;;;12.63;100.00;98835.55;1728906;82;21147;-51
2022/05/23 05:30:57;;;;;;;2.83;2.60;;;;;;;12.69;100.00;98834.61;1749693;81;22302;-49
2022/05/23 05:33:31;;;;;;;5.80;3.42;;;;;;;12.69;100.00;98834.61;1752256;80;21092;-50
2022/05/23 05:36:01;;;;;;;6.17;3.67;;;;;;;12.71;100.00;98833.16;1747435;81;21053;-49
2022/05/23 05:38:35;;;;;;;7.55;4.17;;;;;;;12.75;100.00;98833.34;1747193;81;21016;-50
2022/05/23 05:41:09;;;;;;;7.85;4.45;;;;;;;12.82;100.00;98841.37;1752120;81;21748;-49
2022/05/23 05:43:40;;;;;;;6.40;4.10;;;;;;;12.86;100.00;98842.86;1749158;80;21471;-48
2022/05/23 05:46:15;;;;;;;6.40;4.10;;;;;;;12.93;100.00;98833.33;1750182;81;21075;-51
2022/05/23 05:48:46;;;;;;;3.00;2.65;;;;;;;12.93;100.00;98836.03;1744157;81;21096;-49
2022/05/23 05:51:15;;;;;;;6.12;2.52;;;;;;;12.93;100.00;98836.03;1750166;81;21109;-47
2022/05/23 05:53:45;;;;;;;4.15;2.70;;;;;;;12.89;100.00;98842.65;1717242;81;22568;-48
2022/05/23 05:56:13;;;;;;;3.58;2.25;;;;;;;12.88;100.00;98844.97;1748343;81;21078;-46
2022/05/23 05:58:40;;;;;;;2.37;1.77;;;;;;;12.93;100.00;98842.78;1749877;81;21083;-47
2022/05/23 06:01:07;;;;;;;2.52;1.85;;;;;;;12.93;100.00;98842.78;1724283;81;21403;-46
2022/05/23 06:03:34;;;;;;;2.90;1.17;;;;;;;12.98;100.00;98832.53;1747309;81;21077;-46
2022/05/23 06:11:35;;;;;;;2.35;1.10;;;;;;;13.15;100.00;98838.09;1751299;80;21108;-47
2022/05/23 06:14:06;;;;;;;2.50;1.02;;;;;;;13.20;100.00;98837.25;1744013;80;21418;-47
2022/05/23 06:16:47;;;;;;;1.47;1.05;;;;;;;13.35;100.00;98836.15;1728182;82;21051;-45
2022/05/23 06:19:15;;;;;;;2.90;1.05;;;;;;;13.35;100.00;98836.15;1717623;81;21476;-46
2022/05/23 06:21:44;;;;;;;3.33;0.90;;;;;;;13.39;100.00;98840.33;1721876;81;21040;-48
2022/05/23 06:24:12;;;;;;;1.37;0.80;;;;;;;13.38;100.00;98837.25;1745561;80;21443;-47
2022/05/23 06:26:40;;;;;;;2.95;0.80;;;;;;;13.46;100.00;98844.30;1746001;80;21294;-47
2022/05/23 06:29:17;;;;;;;2.35;0.75;;;;;;;13.58;100.00;98839.35;1719118;81;20995;-47
2022/05/23 06:31:47;;;;;;;2.12;0.78;;;;;;;13.69;100.00;98833.14;1730363;81;21201;-49
2022/05/23 06:34:14;;;;;;;0.75;0.70;;;;;;;13.78;100.00;98837.00;1697480;81;20966;-48
2022/05/23 06:36:42;;;;;;;2.05;0.60;;;;;;;13.84;100.00;98833.81;1730059;80;20986;-46
2022/05/23 06:39:08;;;;;;;1.02;0.70;;;;;;;13.91;100.00;98837.77;1728144;81;21452;-49
2022/05/23 06:41:37;;;;;;;0.60;0.60;;;;;;;13.99;100.00;98842.11;1749855;80;21439;-46
2022/05/23 06:44:08;;;;;;;4.78;0.60;;;;;;;14.09;100.00;98848.55;1747264;80;21156;-48
2022/05/23 06:46:53;;;;;;;;;;;;;;;14.23;100.00;98846.12;1734692;80;21313;-47
2022/05/23 06:49:22;;;;;;;3.30;0.60;;;;;;;14.36;100.00;98839.66;1721656;81;20170;-47
2022/05/23 06:51:54;;;;;;;1.05;0.62;;;;;;;14.47;100.00;98840.66;1732588;81;20982;-46
2022/05/23 06:54:25;;;;;;;2.80;0.68;;;;;;;14.57;100.00;98849.30;1737214;81;20997;-47
2022/05/23 06:57:05;;;;;;;1.72;0.70;;;;;;;14.66;100.00;98849.07;1743656;81;21366;-48
2022/05/23 06:59:32;;;;;;;1.30;1.20;;;;;;;14.72;100.00;98847.22;1741402;80;21022;-47
2022/05/23 07:01:58;;;;;;;6.08;1.32;;;;;;;14.72;100.00;98851.28;1735407;81;21055;-45
2022/05/23 07:13:18;;;;;;;1.42;1.20;;;;;;;14.65;100.00;98841.92;1733402;80;21613;-46
2022/05/23 07:15:48;;;;;;;5.55;1.70;;;;;;;14.64;100.00;98849.19;1757210;80;21044;-49
2022/05/23 07:18:18;;;;;;;1.67;1.40;;;;;;;14.65;100.00;98840.08;1766829;78;21089;-47
2022/05/23 07:20:46;;;;;;;1.95;1.35;;;;;;;14.70;100.00;98845.16;1766624;79;21029;-49
2022/05/23 07:23:14;;;;;;;6.12;1.67;;;;;;;14.76;100.00;98837.88;1738348;80;21123;-50
2022/05/23 07:25:43;;;;;;;3.12;1.92;;;;;;;14.83;100.00;98848.59;1771162;80;21016;-46
2022/05/23 07:28:09;;;;;;;3.00;1.40;;;;;;;14.88;100.00;98843.69;1770992;80;21041;-45
2022/05/23 07:30:36;;;;;;;1.62;1.50;;;;;;;14.91;100.00;98842.56;1777524;78;22240;-48
2022/05/23 07:33:04;;;;;;;2.00;1.62;;;;;;;14.91;100.00;98840.71;1776740;78;20978;-47
2022/05/23 07:35:57;;;;;;;4.28;1.70;;;;;;;14.91;100.00;98842.56;1773210;80;21103;-49
2022/05/23 07:38:24;;;;;;;4.15;1.05;;;;;;;14.90;100.00;98843.05;1753560;80;21016;-47
2022/05/23 07:40:53;;;;;;;2.77;1.80;;;;;;;14.93;100.00;98840.11;1742542;81;21726;-49
2022/05/23 07:43:22;;;;;;;1.82;1.57;;;;;;;15.01;100.00;98838.12;1736662;81;21519;-48
2022/05/23 07:45:49;;;;;;;5.75;1.67;;;;;;;15.07;100.00;98839.84;1774119;79;21096;-48
2022/05/23 07:48:17;;;;;;;4.00;1.10;;;;;;;15.12;100.00;98843.06;1727733;80;21120;-48
2022/05/23 07:50:45;;;;;;;4.10;1.67;;;;;;;15.12;100.00;98844.91;1750253;80;21078;-47
2022/05/23 08:01:45;;;;;;;1.10;0.70;;;;;;;15.17;100.00;98845.39;1745615;80;22549;-47
2022/05/23 08:04:11;;;;;;;1.42;0.70;;;;;;;15.22;100.00;98842.31;1696566;81;21094;-49
2022/05/23 08:06:40;;;;;;;2.33;0.70;;;;;;;15.21;100.00;98849.59;1753939;81;21031;-49
2022/05/23 08:09:07;;;;;;;2.10;0.60;;;;;;;15.22;100.00;98851.31;1755932;81;21068;-48
2022/05/23 08:11:34;;;;;;;1.85;0.60;;;;;;;15.23;100.00;98846.23;1754221;81;21049;-51
2022/05/23 08:14:02;;;;;;;0.98;0.82;;;;;;;15.22;100.00;98845.89;1755839;81;22847;-49
2022/05/23 08:16:31;;;;;;;0.50;0.50;;;;;;;15.24;100.00;98841.67;1707118;81;20967;-49
2022/05/23 08:18:58;;;;;;;0.70;0.57;;;;;;;15.28;100.00;98845.38;1728595;81;21139;-49
2022/05/23 08:21:25;;;;;;;4.15;0.50;;;;;;;15.34;100.00;98839.45;1731409;81;21107;-49
2022/05/23 08:23:52;;;;;;;2.83;0.50;;;;;;;15.42;100.00;98830.68;1730424;81;21495;-46
2022/05/23 08:26:25;;;;;;;3.05;0.55;;;;;;;15.47;100.00;98836.11;1733338;81;22613;-47
2022/05/23 08:28:52;;;;;;;1.05;0.50;;;;;;;15.55;100.00;98832.80;1730110;81;21119;-51
2022/05/23 08:31:20;;;;;;;3.05;0.50;;;;;;;15.60;100.00;98827.84;1731431;81;21124;-51
2022/05/23 08:33:49;;;;;;;3.10;0.50;;;;;;;15.71;100.00;98830.52;1727507;81;21588;-47
2022/05/23 08:36:23;;;;;;;1.12;0.68;;;;;;;15.85;100.00;98825.28;1753790;80;21049;-46
2022/05/23 08:38:51;;;;;;;4.17;0.53;;;;;;;15.98;100.00;98826.48;1746961;80;21122;-49
2022/05/23 08:41:31;;;;;;;2.62;0.50;;;;;;;16.08;100.00;98822.83;1749311;80;21077;-47
2022/05/23 08:44:36;;;;;;;2.45;0.50;;;;;;;16.19;100.00;98825.98;1749183;80;21098;-47
2022/05/23 08:47:12;;;;;;;1.60;0.65;;;;;;;16.24;100.00;98824.62;1727829;80;21053;-50
2022/05/23 08:50:06;;;;;;;3.58;0.50;;;;;;;16.28;100.00;98823.84;1693455;82;21692;-50
2022/05/23 08:52:51;;;;;;;1.77;0.50;;;;;;;16.29;100.00;98831.00;1718408;82;21178;-49
2022/05/23 08:55:36;;;;;;;1.85;0.40;;;;;;;16.27;100.00;98824.83;1745441;80;21140;-49
2022/05/23 08:58:12;;;;;;;1.17;0.40;;;;;;;16.31;100.00;98822.23;1716142;81;21409;-52
2022/05/23 09:00:43;;;;;;;0.93;0.40;;;;;;;16.33;100.00;98828.39;1751428;80;21040;-50
2022/05/23 09:03:38;;;;;;;3.22;0.40;;;;;;;16.35;100.00;98828.23;1750758;80;21104;-50
2022/05/23 09:06:22;;;;;;;2.00;0.47;;;;;;;16.36;100.00;98832.19;1733754;80;20867;-51
2022/05/23 09:09:06;;;;;;;0.57;0.30;;;;;;;16.40;100.00;98834.16;1749013;80;22270;-48
2022/05/23 09:11:39;;;;;;;2.62;0.50;;;;;;;16.39;100.00;98841.44;1753571;80;21114;-49
2022/05/23 09:14:09;;;;;;;1.20;0.30;;;;;;;16.36;100.00;98843.05;1757324;80;21088;-49
2022/05/23 09:16:48;;;;;;;0.45;0.40;;;;;;;16.31;100.00;98848.52;1763459;79;21081;-48
2022/05/23 09:20:00;;;;;;;1.52;0.47;;;;;;;16.25;100.00;98843.09;1726951;81;21310;-49
2022/05/23 09:22:47;;;;;;;1.12;0.50;;;;;;;16.21;100.00;98847.95;1755283;81;21056;-48
2022/05/23 09:25:20;;;;;;;0.80;0.50;;;;;;;16.16;100.00;98854.25;1750757;81;21101;-48
2022/05/23 09:28:01;;;;;;;3.02;0.60;;;;;;;16.13;100.00;98855.02;1751501;81;20969;-47
2022/05/23 09:30:28;;;;;;;1.45;0.78;;;;;;;16.11;100.00;98855.64;1757673;81;20910;-48
2022/05/23 09:33:03;;;;;;;2.55;0.82;;;;;;;16.07;100.00;98852.34;1757578;81;21070;-48
2022/05/23 09:35:47;;;;;;;2.45;1.40;;;;;;;16.05;100.00;98849.39;1751486;81;21123;-51
2022/05/23 09:38:27;;;;;;;2.52;1.00;;;;;;;15.99;100.00;98854.82;1756101;79;20906;-51
2022/05/23 09:40:58;;;;;;;5.62;1.02;;;;;;;15.93;100.00;98853.13;1743851;79;20966;-45
2022/05/23 09:49:13;;;;;;;4.42;1.50;;;;;;;15.94;100.00;98836.72;1684685;81;22101;-47
2022/05/23 09:51:59;;;;;;;5.78;1.45;;;;;;;15.99;100.00;98837.17;1756602;80;20941;-51
2022/05/23 09:54:52;;;;;;;5.55;1.50;;;;;;;16.05;100.00;98839.39;1754300;81;21452;-47
2022/05/23 09:57:28;;;;;;;5.25;1.32;;;;;;;16.13;100.00;98846.39;1754573;81;20958;-47
2022/05/23 10:00:01;;;;;;;2.05;1.00;;;;;;;16.16;100.00;98842.03;1754669;81;21851;-46
2022/05/23 10:02:38;;;;;;;3.20;0.98;;;;;;;16.18;100.00;98837.34;1759564;79;20939;-47
2022/05/23 10:05:11;;;;;;;5.20;1.00;;;;;;;16.18;100.00;98846.84;1758652;81;20938;-50
2022/05/23 10:07:38;;;;;;;2.58;1.10;;;;;;;16.15;100.00;98844.41;1748916;81;21044;-49
2022/05/23 10:10:24;;;;;;;1.60;1.00;;;;;;;16.13;100.00;98846.39;1754068;81;21536;-47
2022/05/23 10:13:28;;;;;;;3.17;0.90;;;;;;;16.13;100.00;98840.95;1755292;81;21119;-48
2022/05/23 10:16:16;;;;;;;1.85;0.62;;;;;;;16.13;100.00;98844.17;1752084;81;21035;-50
2022/05/23 10:18:54;;;;;;;1.35;0.70;;;;;;;16.11;100.00;98842.07;1741076;81;21022;-51
2022/05/23 10:21:34;;;;;;;1.20;0.60;;;;;;;16.12;100.00;98843.30;1736965;81;21270;-48
2022/05/23 10:24:20;;;;;;;1.77;0.50;;;;;;;16.15;100.00;98839.48;1743530;81;21152;-48
2022/05/23 10:26:53;;;;;;;0.55;0.33;;;;;;;16.18;100.00;98832.41;1734520;80;23151;-50
2022/05/23 10:29:34;;;;;;;4.65;0.50;;;;;;;16.31;100.00;98832.23;1738943;81;20993;-51
2022/05/23 10:32:07;;;;;;;1.47;0.40;;;;;;;16.39;100.00;98828.35;1733279;81;21416;-48
2022/05/23 10:34:50;;;;;;;2.58;0.57;;;;;;;16.43;100.00;98832.02;1737482;81;21052;-49
2022/05/23 10:37:25;;;;;;;1.98;0.40;;;;;;;16.41;100.00;98838.59;1736444;81;21030;-48
2022/05/23 10:43:12;;;;;;;0.82;0.47;;;;;;;16.25;100.00;98846.68;1714404;81;21140;-49
2022/05/23 10:45:56;;;;;;;2.25;0.50;;;;;;;16.15;100.00;98851.69;1737088;81;21042;-48
2022/05/23 10:48:48;;;;;;;0.98;0.60;;;;;;;16.06;100.00;98855.19;1736704;81;21042;-48
2022/05/23 10:51:57;;;;;;;1.50;0.90;;;;;;;15.97;100.00;98862.75;1737897;81;21104;-50
2022/05/23 10:54:53;;;;;;;1.67;0.60;;;;;;;15.83;100.00;98874.73;1699993;81;21520;-49
2022/05/23 10:57:42;;;;;;;2.87;0.90;;;;;;;15.61;100.00;98878.39;1735280;81;21587;-51
2022/05/23 11:00:19;;;;;;;1.20;0.68;;;;;;;15.45;100.00;98890.09;1733472;80;21053;-51
2022/05/23 11:03:06;;;;;;;1.07;0.70;;;;;;;15.33;100.00;98885.66;1732649;81;21076;-49
2022/05/23 11:06:07;;;;;;;3.67;1.55;;;;;;;15.25;100.00;98890.84;1742583;80;21094;-51
2022/05/23 11:09:01;;;;;;;3.50;0.78;;;;;;;15.19;100.00;98885.92;1735438;80;21316;-49
2022/05/23 11:11:59;;;;;;;1.87;0.80;;;;;;;15.17;100.00;98885.18;1735205;81;21057;-50
2022/05/23 11:14:59;;;;;;;5.05;1.40;;;;;;;15.17;100.00;98881.11;1729348;81;21093;-48
2022/05/23 11:17:32;;;;;;;6.60;0.80;;;;;;;15.19;100.00;98884.08;1754090;79;21021;-50
2022/05/23 11:20:32;;;;;;;1.05;0.70;;;;;;;15.20;100.00;98893.94;1761199;78;21027;-50
2022/05/23 11:23:12;;;;;;;5.25;1.10;;;;;;;15.20;100.00;98892.59;1771676;79;21157;-50
2022/05/23 11:25:43;;;;;;;4.58;0.88;;;;;;;15.17;100.00;98893.31;1742069;80;21718;-48
2022/05/23 11:34:37;;;;;;;8.93;1.10;;;;;;;15.27;100.00;98900.59;1772109;79;20950;-49
2022/05/23 11:40:01;;;;;;;2.62;1.00;;;;;;;15.37;100.00;98898.00;1766700;79;21108;-49
2022/05/23 11:42:37;;;;;;;2.10;0.70;;;;;;;15.41;100.00;98893.54;1766004;80;21086;-50
2022/05/23 11:48:00;;;;;;;3.90;0.60;;;;;;;15.46;100.00;98896.77;1741865;80;21696;-51
2022/05/23 11:50:30;;;;;;;2.33;0.70;;;;;;;15.46;100.00;98895.41;1773879;78;22560;-50
2022/05/23 11:53:23;;;;;;;2.35;0.60;;;;;;;15.47;100.00;98895.78;1749641;80;20883;-51
2022/05/23 11:55:58;;;;;;;2.72;0.50;;;;;;;15.49;100.00;98894.27;1736703;81;21085;-50
2022/05/23 11:58:38;;;;;;;3.00;0.47;;;;;;;15.49;100.00;98891.55;1765409;78;21359;-49
2022/05/23 12:01:16;;;;;;;4.37;0.60;;;;;;;15.48;100.00;98897.47;1768153;78;21108;-48
2022/05/23 12:03:56;;;;;;;1.02;0.40;;;;;;;15.47;100.00;98890.35;1749583;80;21606;-50
2022/05/23 12:06:33;;;;;;;0.70;0.40;;;;;;;15.46;100.00;98889.98;1750243;81;21537;-47
2022/05/23 12:09:16;;;;;;;0.30;0.30;;;;;;;15.43;100.00;98886.64;1750577;80;21033;-49
2022/05/23 12:11:46;;;;;;;0.62;0.40;;;;;;;15.39;100.00;98885.19;1748088;81;21428;-49
2022/05/23 12:14:25;;;;;;;0.50;0.42;;;;;;;15.34;100.00;98887.39;1747782;81;21002;-49
2022/05/23 12:17:05;;;;;;;0.83;0.40;;;;;;;15.32;100.00;98886.16;1745101;80;21108;-47
2022/05/23 12:19:46;;;;;;;0.47;0.40;;;;;;;15.31;100.00;98887.14;1729698;81;21414;-49
2022/05/23 12:22:41;;;;;;;0.93;0.40;;;;;;;15.29;100.00;98886.42;1750350;80;21053;-50
2022/05/23 12:25:13;;;;;;;0.93;0.40;;;;;;;15.29;100.00;98884.20;1710789;80;20910;-48
2022/05/23 12:27:46;;;;;;;0.57;0.40;;;;;;;15.27;100.00;98880.25;1751317;80;20910;-49
2022/05/23 12:30:25;;;;;;;3.92;0.30;;;;;;;15.30;100.00;98881.37;1734424;80;21615;-47
2022/05/23 12:33:04;;;;;;;0.60;0.40;;;;;;;15.35;100.00;98883.70;1754925;80;20985;-50
2022/05/23 12:35:44;;;;;;;3.12;0.40;;;;;;;15.40;100.00;98880.97;1758374;80;20961;-49
2022/05/23 12:38:44;;;;;;;0.40;0.40;;;;;;;15.45;100.00;98880.11;1758263;80;20914;-51
2022/05/23 12:41:39;;;;;;;3.05;0.40;;;;;;;15.51;100.00;98882.80;1751114;80;21484;-51
2022/05/23 12:44:31;;;;;;;0.70;0.40;;;;;;;15.58;100.00;98882.70;1752888;80;21173;-49
2022/05/23 12:47:24;;;;;;;1.10;0.40;;;;;;;15.66;100.00;98880.22;1742624;80;20966;-51
2022/05/23 12:50:12;;;;;;;0.47;0.35;;;;;;;15.75;100.00;98878.59;1754175;80;20955;-50
2022/05/23 12:53:05;;;;;;;0.80;0.40;;;;;;;15.85;100.00;98877.70;1752941;80;20936;-50
2022/05/23 12:56:05;;;;;;;7.87;0.40;;;;;;;15.94;100.00;98881.99;1720591;80;20965;-49
2022/05/23 12:58:51;;;;;;;2.70;0.30;;;;;;;16.00;100.00;98879.62;1757075;80;21234;-49